createdAt,value
2017-12-11T00:02:14.676Z,5.20
2017-12-11T00:04:42.729Z,5.20
2017-12-11T00:07:11.089Z,5.20
2017-12-11T00:09:39.362Z,5.10
2017-12-11T00:12:07.636Z,5.10
2017-12-11T00:14:35.892Z,5.10
2017-12-11T00:17:03.384Z,5.20
2017-12-11T00:19:30.897Z,5.20
2017-12-11T00:21:58.428Z,5.20
2017-12-11T00:24:25.996Z,5.20
2017-12-11T00:26:53.552Z,5.30
2017-12-11T00:29:21.112Z,5.10
2017-12-11T00:31:48.669Z,5.10
2017-12-11T00:34:16.229Z,5.00
2017-12-11T00:36:43.752Z,5.00
2017-12-11T00:39:11.282Z,5.10
2017-12-11T00:41:39.561Z,5.20
2017-12-11T00:44:07.906Z,5.20
2017-12-11T00:46:35.464Z,5.10
2017-12-11T00:49:02.981Z,5.20
2017-12-11T00:51:30.584Z,5.20
2017-12-11T00:53:58.145Z,5.30
2017-12-11T00:56:25.655Z,5.30
2017-12-11T00:58:53.932Z,5.20
2017-12-11T01:01:21.540Z,5.10
2017-12-11T01:03:49.068Z,5.10
2017-12-11T01:06:16.564Z,5.00
2017-12-11T01:08:44.609Z,4.90
2017-12-11T01:11:12.680Z,4.90
2017-12-11T01:13:40.753Z,4.90
2017-12-11T01:16:08.432Z,4.90
2017-12-11T01:18:36.488Z,4.90
2017-12-11T01:21:04.534Z,5.00
2017-12-11T01:23:33.452Z,5.00
2017-12-11T01:26:01.512Z,5.00
2017-12-11T01:28:29.557Z,5.00
2017-12-11T01:30:58.381Z,4.90
2017-12-11T01:33:26.441Z,4.80
2017-12-11T01:35:54.528Z,4.70
2017-12-11T01:38:22.597Z,4.80
2017-12-11T01:40:50.637Z,4.80
2017-12-11T01:43:19.561Z,5.00
2017-12-11T01:45:47.633Z,5.00
2017-12-11T01:48:15.696Z,5.10
2017-12-11T01:50:43.768Z,5.10
2017-12-11T01:53:11.829Z,5.20
2017-12-11T01:55:39.873Z,5.20
2017-12-11T01:58:07.937Z,5.10
2017-12-11T02:00:35.977Z,4.90
2017-12-11T02:03:04.032Z,5.00
2017-12-11T02:05:32.084Z,5.00
2017-12-11T02:08:00.180Z,5.00
2017-12-11T02:10:28.248Z,5.00
2017-12-11T02:12:56.321Z,5.00
2017-12-11T02:15:24.365Z,5.00
2017-12-11T02:17:53.180Z,5.10
2017-12-11T02:20:21.244Z,5.10
2017-12-11T02:22:49.284Z,5.10
2017-12-11T02:25:18.088Z,5.20
2017-12-11T02:27:46.519Z,5.10
2017-12-11T02:30:14.015Z,5.00
2017-12-11T02:32:42.349Z,5.00
2017-12-11T02:35:09.865Z,4.90
2017-12-11T02:37:37.471Z,4.90
2017-12-11T02:40:05.033Z,4.90
2017-12-11T02:42:32.585Z,4.90
2017-12-11T02:45:00.153Z,5.00
2017-12-11T02:47:27.695Z,5.00
2017-12-11T02:49:55.263Z,5.10
2017-12-11T02:52:24.520Z,5.10
2017-12-11T02:54:52.129Z,5.20
2017-12-11T02:57:19.652Z,5.30
2017-12-11T02:59:47.176Z,5.30
2017-12-11T03:02:15.525Z,5.40
2017-12-11T03:04:43.052Z,5.50
2017-12-11T03:07:11.058Z,5.50
2017-12-11T03:09:39.026Z,5.60
2017-12-11T03:12:06.585Z,5.70
2017-12-11T03:14:34.112Z,5.70
2017-12-11T03:17:01.646Z,5.70
2017-12-11T03:19:29.985Z,5.60
2017-12-11T03:21:57.513Z,5.60
2017-12-11T03:24:25.053Z,5.50
2017-12-11T03:26:52.568Z,5.40
2017-12-11T03:29:20.554Z,5.40
2017-12-11T03:31:48.676Z,5.40
2017-12-11T03:34:17.869Z,5.70
2017-12-11T03:36:45.926Z,5.80
2017-12-11T03:39:14.762Z,5.90
2017-12-11T03:41:42.822Z,5.90
2017-12-11T03:44:11.051Z,6.00
2017-12-11T03:46:39.070Z,5.90
2017-12-11T03:49:06.748Z,5.70
2017-12-11T03:51:34.301Z,5.40
2017-12-11T03:54:01.830Z,5.40
2017-12-11T03:56:29.421Z,5.40
2017-12-11T03:58:56.982Z,5.60
2017-12-11T04:01:24.540Z,5.60
2017-12-11T04:03:52.061Z,5.60
2017-12-11T04:06:19.572Z,5.60
2017-12-11T04:08:47.116Z,5.60
2017-12-11T04:11:14.680Z,5.60
2017-12-11T04:13:42.232Z,5.50
2017-12-11T04:16:09.724Z,5.40
2017-12-11T04:18:37.232Z,5.40
2017-12-11T04:21:04.749Z,5.50
2017-12-11T04:23:32.269Z,5.60
2017-12-11T04:25:59.842Z,5.50
2017-12-11T04:28:28.106Z,5.40
2017-12-11T04:30:55.670Z,5.40
2017-12-11T04:33:23.190Z,5.40
2017-12-11T04:35:50.689Z,5.30
2017-12-11T04:38:18.204Z,5.30
2017-12-11T04:40:46.481Z,5.00
2017-12-11T04:43:14.757Z,5.10
2017-12-11T04:45:42.665Z,5.20
2017-12-11T04:48:10.638Z,5.30
2017-12-11T04:50:38.790Z,5.30
2017-12-11T04:53:06.966Z,5.40
2017-12-11T04:55:35.038Z,5.30
2017-12-11T04:58:03.102Z,5.10
2017-12-11T05:00:31.166Z,5.10
2017-12-11T05:02:59.204Z,5.20
2017-12-11T05:05:27.273Z,5.20
2017-12-11T05:07:55.328Z,5.10
2017-12-11T05:10:23.369Z,4.80
2017-12-11T05:12:51.850Z,4.70
2017-12-11T05:15:19.891Z,4.70
2017-12-11T05:17:48.697Z,4.50
2017-12-11T05:20:16.777Z,4.60
2017-12-11T05:22:44.961Z,4.50
2017-12-11T05:25:13.117Z,4.40
2017-12-11T05:27:41.562Z,4.50
2017-12-11T05:30:09.189Z,4.70
2017-12-11T05:32:36.745Z,4.90
2017-12-11T05:35:04.717Z,4.90
2017-12-11T05:37:32.279Z,4.90
2017-12-11T05:39:59.837Z,5.00
2017-12-11T05:42:27.324Z,5.00
2017-12-11T05:44:54.980Z,4.90
2017-12-11T05:47:22.469Z,4.90
2017-12-11T05:49:50.792Z,4.90
2017-12-11T05:52:18.353Z,4.80
2017-12-11T05:54:45.840Z,4.60
2017-12-11T05:57:13.360Z,4.60
2017-12-11T05:59:40.929Z,4.70
2017-12-11T06:02:08.899Z,4.90
2017-12-11T06:04:36.458Z,4.90
2017-12-11T06:07:03.961Z,4.90
2017-12-11T06:09:32.225Z,4.90
2017-12-11T06:11:59.758Z,5.00
2017-12-11T06:14:27.253Z,5.00
2017-12-11T06:16:54.856Z,5.00
2017-12-11T06:19:22.437Z,4.90
2017-12-11T06:21:49.937Z,4.90
2017-12-11T06:24:18.213Z,4.90
2017-12-11T06:26:46.488Z,5.00
2017-12-11T06:29:14.414Z,4.90
2017-12-11T06:31:41.913Z,4.90
2017-12-11T06:34:10.249Z,4.90
2017-12-11T06:36:37.811Z,4.90
2017-12-11T06:39:06.085Z,4.90
2017-12-11T06:41:33.648Z,4.90
2017-12-11T06:44:01.148Z,4.90
2017-12-11T06:46:29.415Z,5.00
2017-12-11T06:48:56.920Z,5.10
2017-12-11T06:51:24.504Z,5.10
2017-12-11T06:53:52.006Z,5.00
2017-12-11T06:56:20.333Z,5.00
2017-12-11T06:58:47.893Z,5.10
2017-12-11T07:01:15.470Z,5.00
2017-12-11T07:03:42.973Z,5.00
2017-12-11T07:06:10.568Z,5.00
2017-12-11T07:08:38.133Z,5.00
2017-12-11T07:11:05.629Z,5.00
2017-12-11T07:13:33.253Z,5.00
2017-12-11T07:16:00.805Z,5.10
2017-12-11T07:18:29.093Z,5.10
2017-12-11T07:20:56.653Z,5.00
2017-12-11T07:23:24.213Z,5.00
2017-12-11T07:25:51.770Z,4.90
2017-12-11T07:28:19.676Z,4.90
2017-12-11T07:30:47.164Z,5.00
2017-12-11T07:33:14.678Z,4.90
2017-12-11T07:35:42.196Z,4.90
2017-12-11T07:38:09.693Z,4.90
2017-12-11T07:40:37.229Z,4.90
2017-12-11T07:43:04.789Z,4.90
2017-12-11T07:45:32.681Z,4.90
2017-12-11T07:48:00.225Z,5.00
2017-12-11T07:50:27.708Z,4.90
2017-12-11T07:52:55.232Z,5.00
2017-12-11T07:55:22.733Z,5.10
2017-12-11T07:57:51.015Z,5.10
2017-12-11T08:00:19.345Z,5.10
2017-12-11T08:02:47.309Z,5.10
2017-12-11T08:05:15.286Z,5.10
2017-12-11T08:07:42.848Z,5.10
2017-12-11T08:10:10.373Z,5.10
2017-12-11T08:12:37.860Z,5.10
2017-12-11T08:15:05.424Z,5.10
2017-12-11T08:17:33.538Z,5.10
2017-12-11T08:20:01.028Z,5.00
2017-12-11T08:22:28.543Z,5.10
2017-12-11T08:24:56.045Z,5.00
2017-12-11T08:27:24.862Z,5.10
2017-12-11T08:29:52.421Z,5.00
2017-12-11T08:32:19.977Z,5.10
2017-12-11T08:34:47.536Z,5.10
2017-12-11T08:37:15.101Z,5.10
2017-12-11T08:39:42.656Z,5.20
2017-12-11T08:42:10.226Z,5.30
2017-12-11T08:44:38.133Z,5.30
2017-12-11T08:47:06.469Z,5.30
2017-12-11T08:49:34.025Z,5.40
2017-12-11T08:52:01.585Z,5.40
2017-12-11T08:54:29.145Z,5.50
2017-12-11T08:56:57.529Z,5.50
2017-12-11T08:59:25.057Z,5.50
2017-12-11T09:01:52.556Z,5.50
2017-12-11T09:04:20.101Z,5.50
2017-12-11T09:06:47.661Z,5.40
2017-12-11T09:09:15.161Z,5.40
2017-12-11T09:11:42.675Z,5.40
2017-12-11T09:14:10.255Z,5.40
2017-12-11T09:16:37.802Z,5.40
2017-12-11T09:19:05.361Z,5.50
2017-12-11T09:21:32.862Z,5.50
2017-12-11T09:24:01.162Z,5.40
2017-12-11T09:26:28.672Z,5.40
2017-12-11T09:28:56.625Z,5.40
2017-12-11T09:31:24.186Z,5.30
2017-12-11T09:33:51.676Z,5.30
2017-12-11T09:36:19.945Z,5.30
2017-12-11T09:38:47.853Z,5.30
2017-12-11T09:41:15.356Z,5.40
2017-12-11T09:43:42.852Z,5.40
2017-12-11T09:46:11.125Z,5.40
2017-12-11T09:48:39.400Z,5.50
2017-12-11T09:51:07.656Z,5.50
2017-12-11T09:53:35.168Z,5.60
2017-12-11T09:56:02.754Z,5.60
2017-12-11T09:58:30.317Z,5.60
2017-12-11T10:00:57.865Z,5.70
2017-12-11T10:03:25.837Z,5.70
2017-12-11T10:05:54.136Z,5.70
2017-12-11T10:08:21.677Z,5.70
2017-12-11T10:10:49.237Z,5.70
2017-12-11T10:13:16.792Z,5.80
2017-12-11T10:15:44.289Z,5.70
2017-12-11T10:18:11.913Z,5.60
2017-12-11T10:20:39.477Z,5.70
2017-12-11T10:23:06.974Z,5.70
2017-12-11T10:25:34.481Z,5.80
2017-12-11T10:28:02.769Z,5.80
2017-12-11T10:30:30.330Z,5.90
2017-12-11T10:32:57.889Z,5.90
2017-12-11T10:35:25.390Z,5.90
2017-12-11T10:37:53.729Z,5.90
2017-12-11T10:40:21.225Z,5.90
2017-12-11T10:42:49.592Z,5.90
2017-12-11T10:45:17.121Z,6.00
2017-12-11T10:47:44.657Z,6.00
2017-12-11T10:50:12.259Z,6.00
2017-12-11T10:52:39.802Z,6.00
2017-12-11T10:55:07.316Z,6.00
2017-12-11T10:57:35.581Z,6.20
2017-12-11T11:00:03.917Z,6.20
2017-12-11T11:02:31.468Z,6.20
2017-12-11T11:04:59.384Z,6.30
2017-12-11T11:07:27.738Z,6.30
2017-12-11T11:09:55.275Z,6.30
2017-12-11T11:12:22.841Z,6.30
2017-12-11T11:14:50.340Z,6.30
2017-12-11T11:17:17.865Z,6.40
2017-12-11T11:19:45.417Z,6.50
2017-12-11T11:22:12.977Z,6.60
2017-12-11T11:24:40.542Z,6.60
2017-12-11T11:27:08.102Z,6.70
2017-12-11T11:29:35.714Z,6.60
2017-12-11T11:32:03.218Z,6.60
2017-12-11T11:34:30.777Z,6.70
2017-12-11T11:36:58.289Z,6.60
2017-12-11T11:39:26.553Z,6.50
2017-12-11T11:41:54.893Z,6.50
2017-12-11T11:44:22.393Z,6.60
2017-12-11T11:46:50.729Z,6.60
2017-12-11T11:49:18.696Z,6.50
2017-12-11T11:51:46.256Z,6.50
2017-12-11T11:54:13.829Z,6.60
2017-12-11T11:56:41.377Z,6.80
2017-12-11T11:59:08.933Z,6.90
2017-12-11T12:01:36.434Z,7.00
2017-12-11T12:04:03.953Z,7.20
2017-12-11T12:06:31.513Z,7.10
2017-12-11T12:08:59.013Z,7.00
2017-12-11T12:11:27.275Z,7.10
2017-12-11T12:13:54.790Z,7.10
2017-12-11T12:16:22.309Z,7.20
2017-12-11T12:18:49.825Z,7.20
2017-12-11T12:21:18.480Z,7.30
2017-12-11T12:23:46.073Z,7.40
2017-12-11T12:26:13.564Z,7.50
2017-12-11T12:28:41.065Z,7.60
2017-12-11T12:31:08.572Z,7.60
2017-12-11T12:33:36.072Z,7.50
2017-12-11T12:36:03.649Z,7.50
2017-12-11T12:38:31.144Z,7.50
2017-12-11T12:40:59.094Z,7.50
2017-12-11T12:43:26.588Z,7.50
2017-12-11T12:45:54.496Z,7.50
2017-12-11T12:48:22.079Z,7.60
2017-12-11T12:50:50.041Z,7.60
2017-12-11T12:53:17.608Z,7.60
2017-12-11T12:55:45.104Z,7.60
2017-12-11T12:58:12.622Z,7.60
2017-12-11T13:00:40.129Z,7.70
2017-12-11T13:03:08.393Z,7.70
2017-12-11T13:05:35.950Z,7.70
2017-12-11T13:08:05.022Z,7.80
2017-12-11T13:10:32.574Z,7.90
2017-12-11T13:13:00.132Z,7.90
2017-12-11T13:15:28.833Z,8.10
2017-12-11T13:17:56.324Z,8.10
2017-12-11T13:20:24.605Z,8.30
2017-12-11T13:22:52.626Z,8.30
2017-12-11T13:25:20.184Z,8.20
2017-12-11T13:27:47.679Z,8.10
2017-12-11T13:30:15.209Z,8.10
2017-12-11T13:32:42.761Z,8.10
2017-12-11T13:35:10.264Z,8.10
2017-12-11T13:37:38.605Z,8.10
2017-12-11T13:40:06.125Z,8.10
2017-12-11T13:42:33.630Z,8.00
2017-12-11T13:45:01.182Z,7.90
2017-12-11T13:47:28.741Z,8.00
2017-12-11T13:49:56.304Z,7.90
2017-12-11T13:52:23.806Z,7.90
2017-12-11T13:54:52.134Z,8.00
2017-12-11T13:57:19.697Z,8.00
2017-12-11T13:59:47.249Z,8.00
2017-12-11T14:02:14.805Z,8.00
2017-12-11T14:04:42.311Z,7.90
2017-12-11T14:07:09.925Z,8.00
2017-12-11T14:09:37.914Z,7.90
2017-12-11T14:12:05.466Z,8.00
2017-12-11T14:14:32.985Z,8.00
2017-12-11T14:17:00.486Z,8.00
2017-12-11T14:19:27.985Z,7.90
2017-12-11T14:21:56.264Z,7.90
2017-12-11T14:24:24.525Z,7.80
2017-12-11T14:26:52.037Z,7.80
2017-12-11T14:29:19.613Z,7.80
2017-12-11T14:31:47.169Z,7.80
2017-12-11T14:34:14.669Z,7.90
2017-12-11T14:36:42.985Z,7.90
2017-12-11T14:39:10.466Z,8.00
2017-12-11T14:41:38.021Z,8.10
2017-12-11T14:44:05.582Z,8.00
2017-12-11T14:46:33.080Z,7.90
2017-12-11T14:49:00.605Z,7.90
2017-12-11T14:51:28.261Z,7.80
2017-12-11T14:53:57.394Z,8.00
2017-12-11T14:56:24.915Z,8.10
2017-12-11T14:58:52.458Z,8.20
2017-12-11T15:01:20.031Z,8.20
2017-12-11T15:03:48.682Z,8.10
2017-12-11T15:06:17.001Z,8.10
2017-12-11T15:08:44.565Z,7.90
2017-12-11T15:11:12.052Z,8.00
2017-12-11T15:13:39.704Z,7.80
2017-12-11T15:16:08.781Z,7.90
2017-12-11T15:18:36.282Z,7.90
2017-12-11T15:21:04.613Z,8.00
2017-12-11T15:23:32.509Z,8.00
2017-12-11T15:26:00.005Z,8.00
2017-12-11T15:28:27.596Z,8.00
2017-12-11T15:30:55.618Z,7.90
2017-12-11T15:33:23.950Z,7.90
2017-12-11T15:35:51.505Z,7.90
2017-12-11T15:38:19.060Z,7.90
2017-12-11T15:40:47.362Z,8.00
2017-12-11T15:43:14.853Z,8.00
2017-12-11T15:45:43.193Z,8.00
2017-12-11T15:48:10.837Z,8.00
2017-12-11T15:50:38.337Z,8.00
2017-12-11T15:53:05.869Z,8.00
2017-12-11T15:55:33.425Z,8.00
2017-12-11T15:58:00.926Z,8.00
2017-12-11T16:00:29.292Z,8.00
2017-12-11T16:02:56.822Z,7.90
2017-12-11T16:05:24.312Z,7.90
2017-12-11T16:07:51.829Z,7.90
2017-12-11T16:10:19.387Z,7.90
2017-12-11T16:12:47.285Z,7.80
2017-12-11T16:15:14.817Z,7.90
2017-12-11T16:17:42.386Z,7.90
2017-12-11T16:20:10.677Z,7.90
2017-12-11T16:22:38.214Z,7.90
2017-12-11T16:25:05.704Z,7.80
2017-12-11T16:27:34.028Z,7.80
2017-12-11T16:30:02.338Z,7.80
2017-12-11T16:32:29.866Z,7.80
2017-12-11T16:34:57.443Z,7.90
2017-12-11T16:37:25.757Z,7.90
2017-12-11T16:39:53.658Z,7.90
2017-12-11T16:42:21.262Z,7.90
2017-12-11T16:44:48.757Z,7.90
2017-12-11T16:47:17.025Z,8.00
2017-12-11T16:49:44.545Z,7.90
2017-12-11T16:52:12.046Z,7.90
2017-12-11T16:54:39.959Z,7.90
2017-12-11T16:57:07.537Z,7.90
2017-12-11T16:59:35.449Z,7.90
2017-12-11T17:02:03.781Z,7.90
2017-12-11T17:04:31.697Z,7.90
2017-12-11T17:07:00.034Z,7.80
2017-12-11T17:09:27.955Z,7.90
2017-12-11T17:11:56.277Z,7.90
2017-12-11T17:14:23.832Z,7.90
2017-12-11T17:16:51.350Z,7.90
2017-12-11T17:19:19.678Z,7.90
2017-12-11T17:21:47.208Z,7.90
2017-12-11T17:24:14.790Z,7.90
2017-12-11T17:26:42.330Z,7.80
2017-12-11T17:29:10.329Z,7.90
2017-12-11T17:31:37.820Z,7.90
2017-12-11T17:34:06.162Z,7.90
2017-12-11T17:36:33.657Z,7.80
2017-12-11T17:39:01.945Z,7.90
2017-12-11T17:41:30.213Z,7.80
2017-12-11T17:43:58.550Z,7.90
2017-12-11T17:46:26.517Z,7.80
2017-12-11T17:48:54.004Z,7.80
2017-12-11T17:51:21.943Z,7.80
2017-12-11T17:53:49.501Z,7.90
2017-12-11T17:56:17.771Z,7.90
2017-12-11T17:58:47.230Z,7.90
2017-12-11T18:01:15.116Z,7.90
2017-12-11T18:03:42.617Z,7.90
2017-12-11T18:06:10.222Z,7.90
2017-12-11T18:08:37.735Z,7.80
2017-12-11T18:11:05.229Z,7.80
2017-12-11T18:13:33.569Z,7.80
2017-12-11T18:16:01.477Z,7.80
2017-12-11T18:18:29.733Z,7.90
2017-12-11T18:20:57.265Z,7.90
2017-12-11T18:23:24.833Z,7.80
2017-12-11T18:25:52.742Z,7.80
2017-12-11T18:28:21.067Z,7.90
2017-12-11T18:30:48.565Z,7.90
2017-12-11T18:33:16.085Z,7.90
2017-12-11T18:35:43.611Z,7.80
2017-12-11T18:38:11.110Z,7.90
2017-12-11T18:40:38.621Z,7.80
2017-12-11T18:43:06.930Z,7.80
2017-12-11T18:45:34.437Z,7.80
2017-12-11T18:48:01.965Z,7.80
2017-12-11T18:50:30.249Z,7.90
2017-12-11T18:52:57.772Z,7.90
2017-12-11T18:55:25.356Z,7.90
2017-12-11T18:57:52.852Z,7.90
2017-12-11T19:00:20.741Z,7.90
2017-12-11T19:02:49.068Z,7.80
2017-12-11T19:05:16.565Z,7.80
2017-12-11T19:07:44.469Z,7.90
2017-12-11T19:10:11.969Z,7.90
2017-12-11T19:12:39.504Z,7.80
2017-12-11T19:15:07.077Z,7.80
2017-12-11T19:17:34.604Z,7.80
2017-12-11T19:20:02.913Z,7.80
2017-12-11T19:22:30.415Z,7.80
2017-12-11T19:24:59.468Z,7.80
2017-12-11T19:27:26.929Z,7.80
2017-12-11T19:29:54.568Z,7.80
2017-12-11T19:32:22.947Z,7.80
2017-12-11T19:34:51.182Z,7.70
2017-12-11T19:37:19.554Z,7.80
2017-12-11T19:39:47.885Z,7.80
2017-12-11T19:42:15.395Z,7.80
2017-12-11T19:44:43.727Z,7.80
2017-12-11T19:47:11.688Z,7.80
2017-12-11T19:49:39.186Z,7.80
2017-12-11T19:52:06.686Z,7.80
2017-12-11T19:54:34.216Z,7.80
2017-12-11T19:57:01.725Z,7.80
2017-12-11T19:59:29.244Z,7.80
2017-12-11T20:01:57.526Z,7.90
2017-12-11T20:04:26.261Z,7.90
2017-12-11T20:06:54.405Z,7.80
2017-12-11T20:09:22.445Z,7.90
2017-12-11T20:11:50.894Z,7.90
2017-12-11T20:16:48.836Z,7.80
2017-12-11T20:19:17.729Z,7.90
2017-12-11T20:21:46.130Z,7.90
2017-12-11T20:24:14.417Z,7.90
2017-12-11T20:26:42.324Z,7.90
2017-12-11T20:29:10.614Z,7.90
2017-12-11T20:31:39.478Z,7.90
2017-12-11T20:34:07.065Z,7.90
2017-12-11T20:36:35.433Z,7.90
2017-12-11T20:39:03.869Z,7.90
2017-12-11T20:41:31.933Z,7.90
2017-12-11T20:44:00.086Z,7.90
2017-12-11T20:46:28.174Z,7.90
2017-12-11T20:48:56.214Z,7.90
2017-12-11T20:51:25.065Z,7.90
2017-12-11T20:53:53.126Z,7.80
2017-12-11T20:56:21.185Z,7.90
2017-12-11T20:58:49.273Z,7.90
2017-12-11T21:01:17.318Z,7.80
2017-12-11T21:03:45.382Z,7.90
2017-12-11T21:06:14.566Z,7.90
2017-12-11T21:08:42.638Z,7.90
2017-12-11T21:11:10.717Z,7.90
2017-12-11T21:13:38.767Z,7.90
2017-12-11T21:16:07.585Z,7.90
2017-12-11T21:18:36.413Z,7.90
2017-12-11T21:21:04.953Z,7.80
2017-12-11T21:23:33.003Z,7.70
2017-12-11T21:26:01.093Z,7.60
2017-12-11T21:28:29.269Z,7.50
2017-12-11T21:30:58.079Z,7.40
2017-12-11T21:33:26.525Z,7.30
2017-12-11T21:35:54.977Z,7.30
2017-12-11T21:38:23.806Z,7.20
2017-12-11T21:40:52.291Z,7.10
2017-12-11T21:43:20.743Z,7.00
2017-12-11T21:45:49.210Z,7.00
2017-12-11T21:48:17.281Z,7.10
2017-12-11T21:50:45.329Z,7.10
2017-12-11T21:53:13.394Z,7.10
2017-12-11T21:55:41.653Z,7.10
2017-12-11T21:58:09.713Z,7.00
2017-12-11T22:00:37.753Z,7.00
2017-12-11T22:03:06.676Z,6.90
2017-12-11T22:05:34.759Z,6.80
2017-12-11T22:08:02.805Z,6.90
2017-12-11T22:10:30.854Z,6.90
2017-12-11T22:12:58.974Z,6.90
2017-12-11T22:15:27.042Z,6.90
2017-12-11T22:17:55.105Z,6.90
2017-12-11T22:20:23.162Z,6.90
2017-12-11T22:22:51.258Z,7.00
2017-12-11T22:25:19.321Z,6.90
2017-12-11T22:27:47.720Z,6.90
2017-12-11T22:30:15.782Z,6.90
2017-12-11T22:32:44.670Z,6.90
2017-12-11T22:35:12.746Z,6.90
2017-12-11T22:37:40.814Z,6.90
2017-12-11T22:40:08.881Z,6.90
2017-12-11T22:42:36.956Z,6.90
2017-12-11T22:45:05.013Z,6.90
2017-12-11T22:47:32.717Z,7.00
2017-12-11T22:50:00.273Z,6.90
2017-12-11T22:52:27.824Z,6.90
2017-12-11T22:54:55.346Z,6.90
2017-12-11T22:57:23.316Z,6.90
2017-12-11T22:59:52.239Z,6.90
2017-12-11T23:02:20.297Z,6.80
2017-12-11T23:04:48.369Z,6.80
2017-12-11T23:07:16.451Z,6.80
2017-12-11T23:09:44.511Z,6.80
2017-12-11T23:12:12.590Z,6.80
2017-12-11T23:14:40.680Z,6.80
2017-12-11T23:17:09.248Z,6.90
2017-12-11T23:19:37.322Z,6.90
2017-12-11T23:22:05.500Z,6.90
2017-12-11T23:24:33.987Z,6.90
2017-12-11T23:27:01.658Z,6.80
2017-12-11T23:29:29.160Z,6.90
2017-12-11T23:31:57.497Z,6.90
2017-12-11T23:34:25.551Z,6.90
2017-12-11T23:36:53.622Z,6.80
2017-12-11T23:39:21.835Z,6.80
2017-12-11T23:41:50.138Z,6.80
2017-12-11T23:44:17.637Z,6.80
2017-12-11T23:46:45.205Z,6.70
2017-12-11T23:49:12.716Z,6.70
2017-12-11T23:51:40.329Z,6.70
2017-12-11T23:54:15.356Z,6.70
2017-12-11T23:56:42.877Z,6.70
2017-12-11T23:59:10.476Z,6.70
